Time;durP1;ratioP1;P1;durP2;ratioP2;P2;SDS_P1;SDS_P2;PMS_P1;PMS_P2;Temp;Humidity;BMP_temperature;BMP_pressure;BME280_temperature;BME280_humidity;BME280_pressure;Samples;Min_cycle;Max_cycle;Signal;HPM_P1;HPM_P2
2023/07/15 00:01:36;;;;;;;10.70;3.00;;;;;;;;;;5133558;27;20792;-76
2023/07/15 00:04:03;;;;;;;10.93;3.10;;;;;;;;;;5133318;27;20734;-75
2023/07/15 00:06:31;;;;;;;6.37;2.60;;;;;;;;;;5133065;27;20745;-75
2023/07/15 00:08:58;;;;;;;7.07;2.80;;;;;;;;;;5133212;27;20200;-75
2023/07/15 00:11:27;;;;;;;6.87;2.83;;;;;;;;;;5133269;27;20200;-76
2023/07/15 00:13:56;;;;;;;9.57;3.00;;;;;;;;;;5133474;27;20224;-76
2023/07/15 00:16:24;;;;;;;8.10;3.40;;;;;;;;;;5133246;27;20278;-75
2023/07/15 00:18:52;;;;;;;7.23;3.10;;;;;;;;;;5136200;27;20316;-75
2023/07/15 00:21:20;;;;;;;7.30;2.80;;;;;;;;;;5136375;27;20324;-75
2023/07/15 00:23:48;;;;;;;9.07;2.93;;;;;;;;;;5133462;27;20716;-75
2023/07/15 00:26:15;;;;;;;7.10;2.90;;;;;;;;;;5133326;27;20576;-76
2023/07/15 00:28:43;;;;;;;6.00;2.90;;;;;;;;;;5133274;27;20643;-75
2023/07/15 00:31:13;;;;;;;10.77;3.27;;;;;;;;;;5132960;27;20251;-76
2023/07/15 00:33:41;;;;;;;9.70;3.17;;;;;;;;;;5132775;27;20696;-75
2023/07/15 00:36:10;;;;;;;11.53;3.57;;;;;;;;;;5132913;27;20193;-75
2023/07/15 00:38:37;;;;;;;8.43;3.17;;;;;;;;;;5132948;27;20235;-75
2023/07/15 00:41:07;;;;;;;10.63;3.73;;;;;;;;;;5132659;27;20308;-75
2023/07/15 00:43:53;;;;;;;8.83;3.43;;;;;;;;;;5132828;27;20224;-75
2023/07/15 00:46:37;;;;;;;7.60;3.17;;;;;;;;;;5132714;27;20193;-75
2023/07/15 00:49:07;;;;;;;7.07;3.10;;;;;;;;;;5132704;27;20284;-75
2023/07/15 00:51:35;;;;;;;9.67;3.23;;;;;;;;;;5132533;27;20335;-76
2023/07/15 00:54:02;;;;;;;10.90;3.53;;;;;;;;;;5132520;27;20228;-74
2023/07/15 00:56:31;;;;;;;13.63;3.80;;;;;;;;;;5132515;27;20719;-74
2023/07/15 00:58:59;;;;;;;11.97;4.00;;;;;;;;;;5132771;27;20201;-75
2023/07/15 01:01:26;;;;;;;12.50;3.53;;;;;;;;;;5132199;27;20316;-74
2023/07/15 01:03:54;;;;;;;11.60;3.10;;;;;;;;;;5132856;27;20273;-75
2023/07/15 01:06:23;;;;;;;12.67;3.70;;;;;;;;;;5132558;27;20200;-75
2023/07/15 01:08:51;;;;;;;10.37;3.70;;;;;;;;;;5132310;27;20230;-75
2023/07/15 01:11:18;;;;;;;10.73;3.50;;;;;;;;;;5132249;27;20308;-75
2023/07/15 01:13:45;;;;;;;13.13;3.53;;;;;;;;;;5132344;27;20283;-74
2023/07/15 01:16:12;;;;;;;10.90;3.70;;;;;;;;;;5132467;27;20650;-75
2023/07/15 01:18:40;;;;;;;8.60;3.33;;;;;;;;;;5131827;27;20189;-75
2023/07/15 01:21:08;;;;;;;9.77;3.40;;;;;;;;;;5132393;27;20193;-76
2023/07/15 01:23:36;;;;;;;12.90;3.57;;;;;;;;;;5132102;27;20228;-74
2023/07/15 01:26:03;;;;;;;9.20;3.00;;;;;;;;;;5131830;27;20662;-74
2023/07/15 01:28:31;;;;;;;11.83;3.20;;;;;;;;;;5132442;28;20213;-75
2023/07/15 01:30:58;;;;;;;8.27;3.13;;;;;;;;;;5132190;27;20709;-74
2023/07/15 01:33:26;;;;;;;7.77;3.00;;;;;;;;;;5132006;27;20284;-76
2023/07/15 01:35:53;;;;;;;10.17;2.87;;;;;;;;;;5132962;27;20211;-75
2023/07/15 01:38:20;;;;;;;10.77;3.40;;;;;;;;;;5136270;27;20318;-75
2023/07/15 01:40:49;;;;;;;9.57;2.80;;;;;;;;;;5136522;27;20283;-76
2023/07/15 01:43:16;;;;;;;13.93;3.43;;;;;;;;;;5136621;27;20256;-75
2023/07/15 01:45:43;;;;;;;11.80;3.77;;;;;;;;;;5136090;27;20216;-75
2023/07/15 01:48:10;;;;;;;9.60;3.20;;;;;;;;;;5136303;27;20189;-75
2023/07/15 01:50:38;;;;;;;10.33;3.10;;;;;;;;;;5136123;27;20240;-74
2023/07/15 01:53:06;;;;;;;13.53;3.47;;;;;;;;;;5136459;27;20205;-74
2023/07/15 01:55:33;;;;;;;9.77;3.07;;;;;;;;;;5136299;27;20203;-74
2023/07/15 01:58:02;;;;;;;11.70;3.10;;;;;;;;;;5136042;27;20284;-75
2023/07/15 02:00:29;;;;;;;10.47;2.93;;;;;;;;;;5136138;27;20193;-75
2023/07/15 02:02:56;;;;;;;9.67;3.10;;;;;;;;;;5135846;27;20289;-75
2023/07/15 02:05:23;;;;;;;8.80;2.87;;;;;;;;;;5135976;27;20223;-74
2023/07/15 02:07:51;;;;;;;9.93;3.00;;;;;;;;;;5136127;27;20245;-74
2023/07/15 02:10:18;;;;;;;13.20;2.77;;;;;;;;;;5135761;27;20288;-75
2023/07/15 02:12:45;;;;;;;9.70;3.20;;;;;;;;;;5135594;27;20284;-75
2023/07/15 02:15:14;;;;;;;8.77;3.30;;;;;;;;;;5135649;27;20280;-75
2023/07/15 02:17:43;;;;;;;10.20;2.77;;;;;;;;;;5135341;27;20200;-75
2023/07/15 02:20:12;;;;;;;10.07;2.80;;;;;;;;;;5135858;27;20201;-75
2023/07/15 02:22:39;;;;;;;7.60;2.90;;;;;;;;;;5135536;27;20278;-75
2023/07/15 02:25:07;;;;;;;11.20;3.70;;;;;;;;;;5135446;27;20205;-75
2023/07/15 02:27:34;;;;;;;9.87;2.60;;;;;;;;;;5136248;27;20201;-75
2023/07/15 02:30:01;;;;;;;10.97;2.70;;;;;;;;;;5135926;27;20197;-75
2023/07/15 02:32:40;;;;;;;11.00;3.10;;;;;;;;;;5135836;27;20217;-74
2023/07/15 02:35:10;;;;;;;9.73;2.77;;;;;;;;;;5135430;27;20197;-74
2023/07/15 02:37:38;;;;;;;12.13;3.07;;;;;;;;;;5135614;27;20200;-75
2023/07/15 02:40:05;;;;;;;8.67;3.00;;;;;;;;;;5135722;27;20527;-75
2023/07/15 02:42:33;;;;;;;8.47;2.63;;;;;;;;;;5135489;27;20701;-75
2023/07/15 02:45:03;;;;;;;9.03;2.83;;;;;;;;;;5136083;27;20189;-75
2023/07/15 02:47:30;;;;;;;8.80;2.77;;;;;;;;;;5135138;27;20669;-75
2023/07/15 02:50:00;;;;;;;11.03;2.77;;;;;;;;;;5128554;27;20202;-76
2023/07/15 02:52:27;;;;;;;12.17;3.07;;;;;;;;;;5123826;27;20329;-75
2023/07/15 02:54:54;;;;;;;11.33;3.57;;;;;;;;;;5115018;28;20204;-75
2023/07/15 02:57:22;;;;;;;11.27;2.70;;;;;;;;;;5115398;28;20242;-76
2023/07/15 02:59:50;;;;;;;10.07;3.20;;;;;;;;;;5114788;28;20293;-75
2023/07/15 03:02:17;;;;;;;9.43;2.87;;;;;;;;;;5114159;28;20260;-75
2023/07/15 03:04:44;;;;;;;7.87;2.70;;;;;;;;;;5114084;28;20229;-75
2023/07/15 03:07:14;;;;;;;12.50;3.30;;;;;;;;;;5114336;28;20674;-75
2023/07/15 03:09:41;;;;;;;8.93;2.70;;;;;;;;;;5114611;28;20194;-74
2023/07/15 03:12:09;;;;;;;6.53;3.00;;;;;;;;;;5114071;28;20193;-75
2023/07/15 03:14:36;;;;;;;10.13;2.70;;;;;;;;;;5114667;28;20194;-74
2023/07/15 03:17:04;;;;;;;12.20;2.60;;;;;;;;;;5132338;27;20631;-75
2023/07/15 03:19:32;;;;;;;8.73;2.70;;;;;;;;;;5135074;27;20304;-75
2023/07/15 03:21:59;;;;;;;10.17;2.50;;;;;;;;;;5134575;27;20286;-75
2023/07/15 03:24:29;;;;;;;9.93;3.37;;;;;;;;;;5134752;27;20649;-75
2023/07/15 03:26:56;;;;;;;11.53;2.93;;;;;;;;;;5134764;27;20193;-74
2023/07/15 03:29:23;;;;;;;9.67;2.53;;;;;;;;;;5133903;27;20217;-74
2023/07/15 03:31:50;;;;;;;14.83;3.10;;;;;;;;;;5134473;27;20710;-74
2023/07/15 03:34:19;;;;;;;11.13;3.10;;;;;;;;;;5134778;27;20195;-75
2023/07/15 03:36:46;;;;;;;9.73;2.97;;;;;;;;;;5134534;27;20193;-74
2023/07/15 03:39:13;;;;;;;12.83;2.90;;;;;;;;;;5134433;27;20186;-75
2023/07/15 03:41:42;;;;;;;8.60;3.10;;;;;;;;;;5134690;27;20220;-75
2023/07/15 03:44:09;;;;;;;10.73;2.87;;;;;;;;;;5133964;27;20238;-75
2023/07/15 03:46:36;;;;;;;9.50;3.27;;;;;;;;;;5134259;27;20288;-75
2023/07/15 03:49:03;;;;;;;9.93;3.00;;;;;;;;;;5135008;27;20285;-75
2023/07/15 03:51:30;;;;;;;9.40;3.10;;;;;;;;;;5134156;27;20327;-74
2023/07/15 03:53:58;;;;;;;10.93;2.97;;;;;;;;;;5133912;27;20300;-75
2023/07/15 03:56:25;;;;;;;8.77;3.10;;;;;;;;;;5134249;27;20288;-75
2023/07/15 03:58:54;;;;;;;11.80;3.50;;;;;;;;;;5132637;27;20297;-74
2023/07/15 04:01:21;;;;;;;8.40;3.03;;;;;;;;;;5134012;27;20225;-75
2023/07/15 04:03:48;;;;;;;14.33;3.20;;;;;;;;;;5134017;27;20664;-75
2023/07/15 04:06:15;;;;;;;11.20;3.00;;;;;;;;;;5134831;27;20677;-74
2023/07/15 04:08:43;;;;;;;14.93;3.60;;;;;;;;;;5133433;27;20291;-75
2023/07/15 04:11:10;;;;;;;11.10;3.20;;;;;;;;;;5133711;27;20647;-76
2023/07/15 04:13:37;;;;;;;13.63;3.43;;;;;;;;;;5133542;27;20291;-75
2023/07/15 04:16:06;;;;;;;9.87;2.93;;;;;;;;;;5134067;27;20284;-75
2023/07/15 04:18:34;;;;;;;9.60;3.20;;;;;;;;;;5133953;27;20193;-75
2023/07/15 04:21:01;;;;;;;12.30;3.17;;;;;;;;;;5133582;27;20674;-75
2023/07/15 04:23:28;;;;;;;10.50;2.87;;;;;;;;;;5133452;27;20237;-75
2023/07/15 04:25:55;;;;;;;14.07;3.30;;;;;;;;;;5126520;27;20304;-75
2023/07/15 04:28:23;;;;;;;9.40;2.77;;;;;;;;;;5128444;27;20196;-74
2023/07/15 04:30:50;;;;;;;12.97;3.00;;;;;;;;;;5133466;27;20460;-75
2023/07/15 04:33:18;;;;;;;10.73;3.37;;;;;;;;;;5133355;27;20246;-76
2023/07/15 04:35:46;;;;;;;7.20;2.60;;;;;;;;;;5133561;27;20291;-76
2023/07/15 04:38:13;;;;;;;7.10;2.67;;;;;;;;;;5133426;27;20285;-75
2023/07/15 04:40:40;;;;;;;14.73;3.00;;;;;;;;;;5133424;27;20280;-75
2023/07/15 04:43:07;;;;;;;13.10;3.13;;;;;;;;;;5133026;27;20319;-75
2023/07/15 04:45:35;;;;;;;11.30;3.30;;;;;;;;;;5133835;27;20193;-75
2023/07/15 04:48:03;;;;;;;15.40;3.67;;;;;;;;;;5133430;27;20284;-75
2023/07/15 04:50:31;;;;;;;9.63;2.87;;;;;;;;;;5132867;27;20612;-75
2023/07/15 04:52:58;;;;;;;9.07;3.40;;;;;;;;;;5132886;27;20287;-76
2023/07/15 04:55:25;;;;;;;14.27;2.87;;;;;;;;;;5132697;27;20272;-75
2023/07/15 04:57:52;;;;;;;10.17;2.50;;;;;;;;;;5132803;27;20291;-75
2023/07/15 05:00:20;;;;;;;11.73;3.10;;;;;;;;;;5132773;27;20230;-75
2023/07/15 05:02:49;;;;;;;11.30;2.70;;;;;;;;;;5132874;27;20229;-75
2023/07/15 05:05:17;;;;;;;10.13;2.83;;;;;;;;;;5133080;27;20232;-75
2023/07/15 05:07:45;;;;;;;12.13;2.93;;;;;;;;;;5132983;27;20279;-75
2023/07/15 05:10:13;;;;;;;12.88;3.35;;;;;;;;;;5131962;27;20661;-75
2023/07/15 05:12:40;;;;;;;13.70;2.93;;;;;;;;;;5131819;27;20296;-75
2023/07/15 05:15:08;;;;;;;12.50;3.20;;;;;;;;;;5132516;27;20730;-74
2023/07/15 05:17:36;;;;;;;10.95;2.58;;;;;;;;;;5132636;27;20661;-75
2023/07/15 05:20:04;;;;;;;9.03;2.80;;;;;;;;;;5132762;27;20199;-75
2023/07/15 05:22:31;;;;;;;8.90;2.90;;;;;;;;;;5133039;27;20220;-74
2023/07/15 05:24:59;;;;;;;12.53;2.87;;;;;;;;;;5132549;27;20211;-75
2023/07/15 05:27:27;;;;;;;7.27;3.40;;;;;;;;;;5132084;27;20288;-75
2023/07/15 05:29:54;;;;;;;13.53;2.97;;;;;;;;;;5132897;27;20229;-75
2023/07/15 05:32:21;;;;;;;10.13;3.10;;;;;;;;;;5132411;28;20296;-75
2023/07/15 05:34:48;;;;;;;11.57;2.97;;;;;;;;;;5132970;27;20235;-74
2023/07/15 05:37:15;;;;;;;8.77;2.75;;;;;;;;;;5132390;28;20770;-75
2023/07/15 05:39:42;;;;;;;11.15;3.00;;;;;;;;;;5132220;27;20238;-76
2023/07/15 05:42:11;;;;;;;10.30;2.42;;;;;;;;;;5133156;28;20284;-75
2023/07/15 05:44:39;;;;;;;12.63;2.90;;;;;;;;;;5132169;28;20284;-75
2023/07/15 05:47:07;;;;;;;9.88;2.50;;;;;;;;;;5132072;27;20193;-76
2023/07/15 05:49:34;;;;;;;12.73;2.53;;;;;;;;;;5132833;27;20220;-76
2023/07/15 05:52:01;;;;;;;13.77;3.03;;;;;;;;;;5132149;27;20319;-75
2023/07/15 05:54:28;;;;;;;11.88;2.30;;;;;;;;;;5132478;27;20197;-76
2023/07/15 05:56:55;;;;;;;11.05;2.65;;;;;;;;;;5132682;27;20643;-75
2023/07/15 05:59:24;;;;;;;9.82;2.65;;;;;;;;;;5133252;27;20228;-75
2023/07/15 06:01:51;;;;;;;10.80;2.80;;;;;;;;;;5132779;27;20324;-75
2023/07/15 06:04:20;;;;;;;15.30;2.67;;;;;;;;;;5132359;27;20316;-75
2023/07/15 06:06:47;;;;;;;8.00;2.28;;;;;;;;;;5131648;27;20685;-75
2023/07/15 06:09:14;;;;;;;12.43;2.60;;;;;;;;;;5132505;28;20193;-75
2023/07/15 06:11:41;;;;;;;12.15;2.88;;;;;;;;;;5132358;28;20203;-75
2023/07/15 06:14:09;;;;;;;11.75;2.47;;;;;;;;;;5131877;28;20344;-75
2023/07/15 06:16:37;;;;;;;12.18;2.53;;;;;;;;;;5132198;28;20288;-75
2023/07/15 06:19:04;;;;;;;10.32;2.60;;;;;;;;;;5131892;28;20669;-74
2023/07/15 06:21:32;;;;;;;8.23;2.47;;;;;;;;;;5132578;27;20189;-75
2023/07/15 06:23:59;;;;;;;10.85;2.88;;;;;;;;;;5135602;27;20233;-75
2023/07/15 06:26:26;;;;;;;10.18;2.30;;;;;;;;;;5135861;27;20284;-76
2023/07/15 06:28:53;;;;;;;11.10;2.33;;;;;;;;;;5135654;27;20197;-76
2023/07/15 06:31:20;;;;;;;8.98;2.55;;;;;;;;;;5135747;27;20195;-75
2023/07/15 06:33:49;;;;;;;8.70;2.35;;;;;;;;;;5136144;27;20220;-75
2023/07/15 06:36:17;;;;;;;10.95;2.67;;;;;;;;;;5135512;27;20284;-75
2023/07/15 06:38:44;;;;;;;9.15;2.20;;;;;;;;;;5122289;27;20293;-75
2023/07/15 06:41:11;;;;;;;7.75;2.40;;;;;;;;;;5126243;27;20297;-75
2023/07/15 06:43:38;;;;;;;10.65;2.30;;;;;;;;;;5116046;27;20355;-75
2023/07/15 06:46:05;;;;;;;7.22;2.28;;;;;;;;;;5135859;27;20713;-75
2023/07/15 06:48:32;;;;;;;8.48;2.10;;;;;;;;;;5134673;27;20288;-76
2023/07/15 06:51:01;;;;;;;7.72;2.13;;;;;;;;;;5134952;27;20239;-75
2023/07/15 06:53:28;;;;;;;9.32;2.08;;;;;;;;;;5134248;27;20246;-75
2023/07/15 06:55:55;;;;;;;8.18;2.45;;;;;;;;;;5135236;27;20193;-75
2023/07/15 06:58:22;;;;;;;7.82;2.20;;;;;;;;;;5135079;27;20280;-76
2023/07/15 07:00:50;;;;;;;9.10;2.33;;;;;;;;;;5135091;27;20284;-75
2023/07/15 07:03:17;;;;;;;9.48;2.10;;;;;;;;;;5135083;27;20260;-75
2023/07/15 07:05:44;;;;;;;6.70;1.88;;;;;;;;;;5134847;27;20300;-75
2023/07/15 07:08:12;;;;;;;5.07;1.70;;;;;;;;;;5134500;27;20257;-75
2023/07/15 07:10:40;;;;;;;9.20;2.20;;;;;;;;;;5135463;27;20292;-76
2023/07/15 07:13:07;;;;;;;10.15;2.30;;;;;;;;;;5135187;27;20205;-74
2023/07/15 07:15:34;;;;;;;5.93;1.85;;;;;;;;;;5134769;27;20293;-74
2023/07/15 07:18:01;;;;;;;6.65;2.15;;;;;;;;;;5134829;27;20276;-75
2023/07/15 07:20:28;;;;;;;5.95;2.00;;;;;;;;;;5135111;27;20201;-74
2023/07/15 07:22:55;;;;;;;8.18;1.88;;;;;;;;;;5134090;27;20221;-76
2023/07/15 07:25:24;;;;;;;7.35;2.10;;;;;;;;;;5134437;27;20292;-75
2023/07/15 07:27:51;;;;;;;7.38;1.80;;;;;;;;;;5135070;27;20284;-75
2023/07/15 07:30:18;;;;;;;7.55;1.77;;;;;;;;;;5134614;27;20677;-75
2023/07/15 07:32:45;;;;;;;5.72;1.80;;;;;;;;;;5134477;27;20223;-75
2023/07/15 07:35:13;;;;;;;6.13;1.42;;;;;;;;;;5133259;27;20229;-75
2023/07/15 07:37:40;;;;;;;5.30;1.73;;;;;;;;;;5134171;27;20221;-75
2023/07/15 07:40:09;;;;;;;3.83;1.50;;;;;;;;;;5134531;27;20223;-76
2023/07/15 07:42:38;;;;;;;4.30;1.20;;;;;;;;;;5133821;27;20189;-75
2023/07/15 07:45:12;;;;;;;6.03;1.77;;;;;;;;;;5134093;27;20319;-75
2023/07/15 07:47:40;;;;;;;4.45;1.35;;;;;;;;;;5133843;27;20230;-75
2023/07/15 07:50:07;;;;;;;6.13;1.80;;;;;;;;;;5133941;27;20224;-76
2023/07/15 07:52:34;;;;;;;7.05;1.63;;;;;;;;;;5134259;27;20284;-76
2023/07/15 07:55:01;;;;;;;7.68;1.65;;;;;;;;;;5133932;27;20305;-75
2023/07/15 07:57:29;;;;;;;7.65;1.77;;;;;;;;;;5133745;27;20305;-75
2023/07/15 07:59:57;;;;;;;5.03;1.60;;;;;;;;;;5133841;27;20309;-75
2023/07/15 08:02:25;;;;;;;5.40;1.63;;;;;;;;;;5133858;27;20228;-75
2023/07/15 08:04:52;;;;;;;5.28;1.70;;;;;;;;;;5133285;27;20228;-75
2023/07/15 08:07:19;;;;;;;3.95;1.70;;;;;;;;;;5133627;27;20194;-74
2023/07/15 08:09:46;;;;;;;6.65;1.52;;;;;;;;;;5133413;27;20283;-75
2023/07/15 08:12:13;;;;;;;6.10;1.98;;;;;;;;;;5131933;27;20281;-75
2023/07/15 08:14:41;;;;;;;6.93;1.92;;;;;;;;;;5123672;27;20296;-75
2023/07/15 08:17:09;;;;;;;8.18;1.98;;;;;;;;;;5117625;27;20208;-76
2023/07/15 08:19:36;;;;;;;5.88;1.83;;;;;;;;;;5128564;27;20296;-76
2023/07/15 08:22:03;;;;;;;10.02;2.42;;;;;;;;;;5122873;27;20296;-74
2023/07/15 08:24:31;;;;;;;6.53;2.35;;;;;;;;;;5119137;27;20272;-76
2023/07/15 08:26:58;;;;;;;6.15;2.20;;;;;;;;;;5117518;27;20284;-76
2023/07/15 08:29:25;;;;;;;7.22;2.38;;;;;;;;;;5132887;27;20597;-75
2023/07/15 08:31:52;;;;;;;4.60;2.17;;;;;;;;;;5132705;27;20284;-75
2023/07/15 08:34:21;;;;;;;6.60;1.88;;;;;;;;;;5132923;27;20225;-75
2023/07/15 08:36:48;;;;;;;4.60;1.40;;;;;;;;;;5132878;27;20197;-75
2023/07/15 08:39:15;;;;;;;8.90;2.03;;;;;;;;;;5132778;27;20279;-75
2023/07/15 08:41:43;;;;;;;8.93;1.60;;;;;;;;;;5132930;27;20280;-75
2023/07/15 08:44:14;;;;;;;7.00;1.92;;;;;;;;;;5130313;27;20352;-76
2023/07/15 08:46:42;;;;;;;6.47;1.88;;;;;;;;;;5112513;28;20198;-74
2023/07/15 08:49:10;;;;;;;7.05;1.70;;;;;;;;;;5111932;28;20205;-75
2023/07/15 08:51:39;;;;;;;5.78;1.67;;;;;;;;;;5117617;27;20243;-75
2023/07/15 08:54:08;;;;;;;6.45;1.85;;;;;;;;;;5132588;27;20200;-76
2023/07/15 08:56:35;;;;;;;6.95;1.73;;;;;;;;;;5133278;27;20246;-76
2023/07/15 08:59:04;;;;;;;6.50;1.67;;;;;;;;;;5132435;27;20201;-76
2023/07/15 09:01:31;;;;;;;5.45;1.33;;;;;;;;;;5132638;27;20193;-76
2023/07/15 09:03:58;;;;;;;6.78;1.83;;;;;;;;;;5132072;27;20319;-75
2023/07/15 09:06:25;;;;;;;7.72;1.95;;;;;;;;;;5132734;27;20285;-75
2023/07/15 09:08:54;;;;;;;6.53;1.58;;;;;;;;;;5132247;27;20283;-76
2023/07/15 09:11:21;;;;;;;5.50;1.63;;;;;;;;;;5132344;27;20748;-76
2023/07/15 09:13:48;;;;;;;5.28;1.65;;;;;;;;;;5132417;27;20625;-76
2023/07/15 09:16:15;;;;;;;5.85;1.55;;;;;;;;;;5132550;27;20246;-76
2023/07/15 09:18:44;;;;;;;8.63;1.95;;;;;;;;;;5131916;27;20670;-75
2023/07/15 09:21:13;;;;;;;6.30;2.58;;;;;;;;;;5132111;27;20297;-76
2023/07/15 09:23:41;;;;;;;5.97;1.65;;;;;;;;;;5132232;27;20285;-75
2023/07/15 09:26:10;;;;;;;7.82;2.10;;;;;;;;;;5132578;27;20224;-76
2023/07/15 09:28:37;;;;;;;4.20;1.80;;;;;;;;;;5132524;28;20276;-75
2023/07/15 09:31:04;;;;;;;4.97;1.63;;;;;;;;;;5132319;27;20222;-75
2023/07/15 09:33:32;;;;;;;4.38;1.42;;;;;;;;;;5131919;27;20224;-75
2023/07/15 09:35:59;;;;;;;3.97;1.40;;;;;;;;;;5132154;28;20280;-76
2023/07/15 09:38:31;;;;;;;4.70;1.75;;;;;;;;;;5130890;28;20287;-75
2023/07/15 09:40:58;;;;;;;4.82;1.58;;;;;;;;;;5131221;27;20212;-76
2023/07/15 09:43:44;;;;;;;4.72;1.67;;;;;;;;;;5126215;27;20307;-75
2023/07/15 09:46:12;;;;;;;4.63;1.70;;;;;;;;;;5128987;27;20197;-75
2023/07/15 09:48:41;;;;;;;6.00;1.75;;;;;;;;;;5097599;28;20208;-76
2023/07/15 09:51:08;;;;;;;5.82;1.65;;;;;;;;;;5124752;27;20321;-76
2023/07/15 09:53:35;;;;;;;6.47;1.80;;;;;;;;;;5124025;27;20236;-76
2023/07/15 09:56:03;;;;;;;4.45;1.77;;;;;;;;;;5130282;27;20681;-74
2023/07/15 09:58:34;;;;;;;5.57;2.05;;;;;;;;;;5126525;27;20205;-75
2023/07/15 10:01:04;;;;;;;6.57;2.38;;;;;;;;;;5114998;28;20200;-75
2023/07/15 10:03:36;;;;;;;8.45;2.72;;;;;;;;;;5123038;27;20220;-76
2023/07/15 10:06:04;;;;;;;8.75;3.10;;;;;;;;;;5132890;27;20201;-76
2023/07/15 10:08:32;;;;;;;7.57;2.58;;;;;;;;;;5135105;27;20197;-75
2023/07/15 10:10:59;;;;;;;6.47;2.25;;;;;;;;;;5134188;27;20284;-76
2023/07/15 10:13:26;;;;;;;8.02;2.28;;;;;;;;;;5132175;27;20197;-75
2023/07/15 10:15:55;;;;;;;7.43;2.08;;;;;;;;;;5128454;27;20231;-75
2023/07/15 10:18:24;;;;;;;5.93;1.95;;;;;;;;;;5128076;27;20233;-76
2023/07/15 10:20:55;;;;;;;8.75;2.15;;;;;;;;;;5122992;27;20300;-76
2023/07/15 10:23:26;;;;;;;6.03;1.92;;;;;;;;;;5121291;27;20328;-76
2023/07/15 10:26:00;;;;;;;4.78;1.95;;;;;;;;;;5128443;27;20229;-75
2023/07/15 10:28:30;;;;;;;8.88;2.20;;;;;;;;;;5118400;27;20291;-77
2023/07/15 10:31:08;;;;;;;8.55;2.38;;;;;;;;;;5126022;27;20256;-75
2023/07/15 10:33:36;;;;;;;7.75;3.72;;;;;;;;;;5133194;27;20210;-75
2023/07/15 10:36:05;;;;;;;6.03;2.25;;;;;;;;;;5122248;27;20197;-76
2023/07/15 10:38:33;;;;;;;6.90;2.28;;;;;;;;;;5125781;27;20208;-76
2023/07/15 10:41:02;;;;;;;7.95;2.10;;;;;;;;;;5134418;27;20308;-76
2023/07/15 10:43:39;;;;;;;6.13;1.98;;;;;;;;;;5134401;27;20196;-76
2023/07/15 10:46:08;;;;;;;5.22;1.95;;;;;;;;;;5132683;27;20224;-76
2023/07/15 10:48:36;;;;;;;6.30;2.30;;;;;;;;;;5131312;27;20232;-76
2023/07/15 10:51:04;;;;;;;5.05;1.67;;;;;;;;;;5112864;27;20310;-76
2023/07/15 10:53:32;;;;;;;5.43;1.80;;;;;;;;;;5124865;27;20220;-76
2023/07/15 10:56:00;;;;;;;4.75;1.80;;;;;;;;;;5128991;27;20217;-75
2023/07/15 10:58:27;;;;;;;3.28;1.35;;;;;;;;;;5128988;27;20344;-75
2023/07/15 11:00:59;;;;;;;7.18;1.50;;;;;;;;;;5128167;27;20276;-75
2023/07/15 11:03:28;;;;;;;5.53;1.58;;;;;;;;;;5128704;27;20593;-75
2023/07/15 11:05:56;;;;;;;4.47;1.38;;;;;;;;;;5129867;27;20220;-76
2023/07/15 11:08:24;;;;;;;6.25;1.80;;;;;;;;;;5127456;27;20197;-76
2023/07/15 11:10:51;;;;;;;4.32;1.65;;;;;;;;;;5129114;27;20664;-76
2023/07/15 11:13:19;;;;;;;4.53;1.40;;;;;;;;;;5132419;27;20269;-76
2023/07/15 11:15:46;;;;;;;4.82;1.50;;;;;;;;;;5134749;27;20220;-76
2023/07/15 11:18:17;;;;;;;3.60;1.20;;;;;;;;;;5134865;27;20288;-76
2023/07/15 11:20:46;;;;;;;3.85;1.55;;;;;;;;;;5134327;27;20689;-75
2023/07/15 11:23:13;;;;;;;4.65;1.38;;;;;;;;;;5134534;27;20628;-76
2023/07/15 11:25:40;;;;;;;4.03;1.30;;;;;;;;;;5134838;27;20243;-76
2023/07/15 11:28:08;;;;;;;5.30;1.20;;;;;;;;;;5134314;27;20292;-76
2023/07/15 11:30:35;;;;;;;2.95;1.23;;;;;;;;;;5134492;27;20276;-76
2023/07/15 11:33:03;;;;;;;3.90;1.65;;;;;;;;;;5134778;27;20226;-77
2023/07/15 11:35:34;;;;;;;6.03;1.55;;;;;;;;;;5131657;27;20193;-78
2023/07/15 11:38:07;;;;;;;6.18;1.50;;;;;;;;;;5134294;27;20197;-77
2023/07/15 11:40:35;;;;;;;3.08;1.20;;;;;;;;;;5134124;27;20189;-77
2023/07/15 11:43:03;;;;;;;4.55;1.20;;;;;;;;;;5132584;27;20204;-78
2023/07/15 11:45:30;;;;;;;3.88;1.20;;;;;;;;;;5127767;27;20648;-78
2023/07/15 11:47:57;;;;;;;2.72;0.95;;;;;;;;;;5130487;27;20197;-76
2023/07/15 11:50:28;;;;;;;2.72;1.38;;;;;;;;;;5133484;27;20194;-77
2023/07/15 11:52:55;;;;;;;2.60;1.10;;;;;;;;;;5133555;27;20228;-76
2023/07/15 11:55:27;;;;;;;2.92;1.10;;;;;;;;;;5123343;27;20204;-76
2023/07/15 11:57:55;;;;;;;4.15;0.88;;;;;;;;;;5119865;27;20250;-76
2023/07/15 12:00:29;;;;;;;2.55;1.10;;;;;;;;;;5128741;27;20287;-75
2023/07/15 12:02:57;;;;;;;3.38;1.10;;;;;;;;;;5130304;27;20287;-76
2023/07/15 12:05:24;;;;;;;4.75;1.15;;;;;;;;;;5124323;27;20942;-76
2023/07/15 12:07:51;;;;;;;3.00;1.00;;;;;;;;;;5130273;27;20225;-75
2023/07/15 12:10:19;;;;;;;3.33;0.95;;;;;;;;;;5133170;27;20748;-76
2023/07/15 12:12:48;;;;;;;4.10;1.05;;;;;;;;;;5132890;27;20249;-75
2023/07/15 12:15:18;;;;;;;5.68;1.10;;;;;;;;;;5132811;27;20197;-76
2023/07/15 12:17:46;;;;;;;4.90;1.17;;;;;;;;;;5132124;27;20681;-76
2023/07/15 12:20:13;;;;;;;3.38;1.02;;;;;;;;;;5131865;27;20288;-74
2023/07/15 12:22:40;;;;;;;4.38;1.10;;;;;;;;;;5132531;27;20284;-75
2023/07/15 12:25:08;;;;;;;4.32;1.15;;;;;;;;;;5132457;27;20228;-76
2023/07/15 12:27:37;;;;;;;3.40;1.10;;;;;;;;;;5131996;27;20207;-75
2023/07/15 12:30:06;;;;;;;2.38;0.90;;;;;;;;;;5132274;27;20733;-75
2023/07/15 12:32:33;;;;;;;1.83;0.90;;;;;;;;;;5132343;27;20215;-74
2023/07/15 12:35:01;;;;;;;3.10;1.00;;;;;;;;;;5131710;27;20301;-76
2023/07/15 12:37:28;;;;;;;3.53;1.00;;;;;;;;;;5115714;27;20670;-76
2023/07/15 12:39:55;;;;;;;3.05;1.33;;;;;;;;;;5130433;27;20198;-78
2023/07/15 12:42:22;;;;;;;2.97;1.10;;;;;;;;;;5111884;28;20205;-76
2023/07/15 12:44:49;;;;;;;5.57;1.10;;;;;;;;;;5111719;28;20224;-78
2023/07/15 12:47:18;;;;;;;3.22;1.17;;;;;;;;;;5111901;28;20727;-78
2023/07/15 12:49:45;;;;;;;4.75;1.20;;;;;;;;;;5118253;27;20242;-77
2023/07/15 12:52:12;;;;;;;2.72;1.05;;;;;;;;;;5130272;27;20221;-78
2023/07/15 12:54:39;;;;;;;4.50;1.20;;;;;;;;;;5131911;27;20284;-78
2023/07/15 12:57:07;;;;;;;3.10;1.30;;;;;;;;;;5132711;27;20193;-77
2023/07/15 12:59:34;;;;;;;3.10;0.90;;;;;;;;;;5132745;27;20232;-77
2023/07/15 13:02:01;;;;;;;6.38;1.30;;;;;;;;;;5132973;27;20276;-76
2023/07/15 13:04:31;;;;;;;2.67;1.00;;;;;;;;;;5132435;27;20617;-78
2023/07/15 13:06:58;;;;;;;5.40;1.00;;;;;;;;;;5132556;27;20220;-78
2023/07/15 13:09:25;;;;;;;2.65;0.70;;;;;;;;;;5132317;27;20284;-78
2023/07/15 13:11:52;;;;;;;3.17;0.85;;;;;;;;;;5132779;27;20193;-78
2023/07/15 13:14:19;;;;;;;2.17;1.00;;;;;;;;;;5132636;27;20281;-78
2023/07/15 13:16:46;;;;;;;3.70;1.10;;;;;;;;;;5132612;27;20283;-77
2023/07/15 13:19:14;;;;;;;2.42;0.70;;;;;;;;;;5132569;27;20193;-78
2023/07/15 13:21:43;;;;;;;3.60;1.05;;;;;;;;;;5132512;27;20675;-78
2023/07/15 13:24:10;;;;;;;2.70;0.90;;;;;;;;;;5131795;27;20193;-78
2023/07/15 13:26:37;;;;;;;3.63;1.10;;;;;;;;;;5132412;27;20318;-77
2023/07/15 13:29:04;;;;;;;2.35;1.02;;;;;;;;;;5132408;28;20280;-79
2023/07/15 13:31:31;;;;;;;3.30;1.15;;;;;;;;;;5131067;27;20212;-78
2023/07/15 13:33:58;;;;;;;1.48;0.88;;;;;;;;;;5131995;27;20287;-78
2023/07/15 13:36:26;;;;;;;2.75;1.10;;;;;;;;;;5132166;28;20229;-78
2023/07/15 13:38:54;;;;;;;3.30;1.13;;;;;;;;;;5131712;27;20225;-78
2023/07/15 13:41:21;;;;;;;4.32;1.40;;;;;;;;;;5131910;27;20240;-78
2023/07/15 13:43:49;;;;;;;4.22;1.13;;;;;;;;;;5132214;28;20193;-78
2023/07/15 13:46:16;;;;;;;3.30;1.20;;;;;;;;;;5132125;28;20319;-78
2023/07/15 13:48:43;;;;;;;3.17;1.10;;;;;;;;;;5129781;27;20228;-79
2023/07/15 13:51:10;;;;;;;1.67;0.88;;;;;;;;;;5128095;28;20260;-78
2023/07/15 13:53:37;;;;;;;3.00;0.90;;;;;;;;;;5131600;27;20221;-76
2023/07/15 13:56:06;;;;;;;1.65;0.90;;;;;;;;;;5131496;27;20228;-77
2023/07/15 13:58:34;;;;;;;1.70;0.90;;;;;;;;;;5124914;27;20840;-77
2023/07/15 14:01:02;;;;;;;3.92;1.10;;;;;;;;;;5134634;27;20239;-78
2023/07/15 14:03:29;;;;;;;3.42;1.15;;;;;;;;;;5134845;27;20653;-78
2023/07/15 14:05:56;;;;;;;2.72;1.20;;;;;;;;;;5135959;27;20596;-78
2023/07/15 14:08:23;;;;;;;3.22;1.20;;;;;;;;;;5135727;27;20200;-78
2023/07/15 14:10:51;;;;;;;4.20;1.40;;;;;;;;;;5136610;27;20630;-78
2023/07/15 14:13:19;;;;;;;4.50;1.23;;;;;;;;;;5130718;27;20292;-78
2023/07/15 14:15:46;;;;;;;4.50;1.10;;;;;;;;;;5129754;27;20292;-78
2023/07/15 14:18:13;;;;;;;3.55;1.10;;;;;;;;;;5132346;27;20280;-79
2023/07/15 14:20:40;;;;;;;2.65;1.10;;;;;;;;;;5133962;27;20279;-78
2023/07/15 14:23:08;;;;;;;2.80;1.17;;;;;;;;;;5150212;27;20280;-79
2023/07/15 14:25:35;;;;;;;3.70;1.25;;;;;;;;;;5141271;27;20323;-78
2023/07/15 14:28:02;;;;;;;3.90;1.13;;;;;;;;;;5151360;27;20677;-77
2023/07/15 14:30:31;;;;;;;3.53;1.30;;;;;;;;;;5140063;27;20221;-77
2023/07/15 14:32:58;;;;;;;3.10;1.08;;;;;;;;;;5152997;27;20286;-78
2023/07/15 14:35:25;;;;;;;2.95;1.30;;;;;;;;;;5137478;27;20228;-77
2023/07/15 14:37:52;;;;;;;4.93;1.15;;;;;;;;;;5132104;27;20207;-78
2023/07/15 14:40:20;;;;;;;2.75;1.40;;;;;;;;;;5133745;27;20292;-78
2023/07/15 14:42:47;;;;;;;4.05;1.52;;;;;;;;;;5134579;27;20215;-79